WWW216 KCVG-KORD
Flight info
| Callsign | WWW216 |
|---|---|
| Flight time | N/A |
| Altitude | 36000 |
| Route | JBNCH6 SNKPT BONNT VEECK5 |
| Aircraft | B736/M-VGDW/C |
Departure
| Time | 2026-04-30 01:12 |
|---|---|
| Airport | Cincinnati Northern Kentucky International Airport (KCVG) |
Arrival
| Time | N/A |
|---|---|
| Airport | Chicago O'Hare International Airport (KORD) |
| Time | Latitude | Longitude | Altitude | Speed | Heading |
|---|---|---|---|---|---|
| 2026-04-30 00:43 | 39.04410 | -84.66414 | 878 ft | 0 kts | 271° |
| 2026-04-30 01:07 | 39.04415 | -84.66433 | 878 ft | 3 kts | 303° |
| 2026-04-30 01:07 | 39.04438 | -84.66437 | 878 ft | 4 kts | 6° |
| 2026-04-30 01:07 | 39.04476 | -84.66433 | 879 ft | 7 kts | 0° |
| 2026-04-30 01:08 | 39.04511 | -84.66427 | 880 ft | 4 kts | 26° |
| 2026-04-30 01:08 | 39.04519 | -84.66390 | 880 ft | 6 kts | 90° |
| 2026-04-30 01:08 | 39.04519 | -84.66278 | 879 ft | 18 kts | 91° |
| 2026-04-30 01:08 | 39.04518 | -84.66107 | 879 ft | 19 kts | 90° |
| 2026-04-30 01:09 | 39.04496 | -84.65942 | 879 ft | 19 kts | 120° |
| 2026-04-30 01:09 | 39.04462 | -84.65797 | 878 ft | 17 kts | 90° |
| 2026-04-30 01:09 | 39.04462 | -84.65650 | 878 ft | 16 kts | 90° |
| 2026-04-30 01:09 | 39.04461 | -84.65509 | 878 ft | 15 kts | 90° |
| 2026-04-30 01:10 | 39.04461 | -84.65393 | 878 ft | 10 kts | 90° |
| 2026-04-30 01:10 | 39.04461 | -84.65371 | 878 ft | 0 kts | 90° |
| 2026-04-30 01:10 | 39.04461 | -84.65362 | 878 ft | 5 kts | 90° |
| 2026-04-30 01:10 | 39.04472 | -84.65315 | 879 ft | 6 kts | 51° |
| 2026-04-30 01:11 | 39.04510 | -84.65300 | 879 ft | 6 kts | 0° |
| 2026-04-30 01:11 | 39.04550 | -84.65300 | 881 ft | 6 kts | 0° |
| 2026-04-30 01:11 | 39.04612 | -84.65321 | 882 ft | 11 kts | 313° |
| 2026-04-30 01:11 | 39.04625 | -84.65425 | 882 ft | 21 kts | 271° |
| 2026-04-30 01:12 | 39.04627 | -84.66000 | 881 ft | 107 kts | 270° |
| 2026-04-30 01:12 | 39.04633 | -84.67286 | 913 ft | 176 kts | 271° |
| 2026-04-30 01:12 | 39.04604 | -84.68874 | 2017 ft | 165 kts | 273° |
| 2026-04-30 01:12 | 39.04604 | -84.70304 | 3266 ft | 159 kts | 276° |
| 2026-04-30 01:13 | 39.04616 | -84.71859 | 3803 ft | 191 kts | 275° |
| 2026-04-30 01:13 | 39.04625 | -84.73699 | 4164 ft | 221 kts | 274° |
| 2026-04-30 01:13 | 39.04625 | -84.75716 | 4797 ft | 229 kts | 273° |
| 2026-04-30 01:13 | 39.04622 | -84.77761 | 5080 ft | 229 kts | 273° |
| 2026-04-30 01:14 | 39.05063 | -84.79699 | 5836 ft | 229 kts | 306° |
| 2026-04-30 01:14 | 39.06267 | -84.81047 | 6728 ft | 234 kts | 329° |
| 2026-04-30 01:14 | 39.07790 | -84.81860 | 7588 ft | 239 kts | 337° |
| 2026-04-30 01:14 | 39.09386 | -84.82511 | 8438 ft | 243 kts | 338° |
| 2026-04-30 01:15 | 39.11022 | -84.83145 | 9293 ft | 246 kts | 336° |
| 2026-04-30 01:15 | 39.12653 | -84.83777 | 10101 ft | 249 kts | 336° |
| 2026-04-30 01:15 | 39.14314 | -84.84428 | 10865 ft | 251 kts | 335° |
| 2026-04-30 01:15 | 39.15995 | -84.85093 | 11589 ft | 254 kts | 334° |
| 2026-04-30 01:16 | 39.17699 | -84.85772 | 12346 ft | 257 kts | 334° |
| 2026-04-30 01:16 | 39.19418 | -84.86462 | 13078 ft | 260 kts | 333° |
| 2026-04-30 01:16 | 39.21150 | -84.87160 | 13809 ft | 263 kts | 333° |
| 2026-04-30 01:16 | 39.22909 | -84.87871 | 14462 ft | 265 kts | 332° |
| 2026-04-30 01:17 | 39.24686 | -84.88592 | 15099 ft | 270 kts | 332° |
| 2026-04-30 01:17 | 39.26509 | -84.89339 | 15576 ft | 285 kts | 333° |
| 2026-04-30 01:17 | 39.28448 | -84.90135 | 16116 ft | 300 kts | 333° |
| 2026-04-30 01:17 | 39.30478 | -84.90968 | 16622 ft | 314 kts | 333° |
| 2026-04-30 01:18 | 39.32619 | -84.91845 | 17044 ft | 330 kts | 333° |
| 2026-04-30 01:18 | 39.34865 | -84.92763 | 17451 ft | 346 kts | 334° |
| 2026-04-30 01:18 | 39.37212 | -84.93720 | 17880 ft | 360 kts | 334° |
| 2026-04-30 01:18 | 39.39655 | -84.94715 | 18302 ft | 374 kts | 334° |
| 2026-04-30 01:19 | 39.42179 | -84.95742 | 18670 ft | 385 kts | 334° |
| 2026-04-30 01:19 | 39.44745 | -84.96787 | 19035 ft | 396 kts | 334° |
| 2026-04-30 01:19 | 39.47410 | -84.97874 | 19398 ft | 405 kts | 334° |
| 2026-04-30 01:19 | 39.50129 | -84.98983 | 19781 ft | 412 kts | 334° |
| 2026-04-30 01:20 | 39.52888 | -85.00110 | 20147 ft | 419 kts | 334° |
| 2026-04-30 01:20 | 39.55688 | -85.01258 | 20528 ft | 424 kts | 334° |
| 2026-04-30 01:20 | 39.58462 | -85.02426 | 21002 ft | 424 kts | 332° |
| 2026-04-30 01:20 | 39.61192 | -85.03867 | 21568 ft | 421 kts | 328° |
| 2026-04-30 01:21 | 39.63894 | -85.05390 | 22100 ft | 422 kts | 328° |
| 2026-04-30 01:21 | 39.66587 | -85.06934 | 22584 ft | 424 kts | 328° |
| 2026-04-30 01:21 | 39.69303 | -85.08492 | 23057 ft | 427 kts | 328° |
| 2026-04-30 01:21 | 39.72022 | -85.10044 | 23541 ft | 429 kts | 328° |
| 2026-04-30 01:22 | 39.74733 | -85.11584 | 23947 ft | 430 kts | 328° |
| 2026-04-30 01:22 | 39.77482 | -85.13140 | 24344 ft | 432 kts | 328° |
| 2026-04-30 01:22 | 39.80240 | -85.14698 | 24728 ft | 434 kts | 328° |
| 2026-04-30 01:22 | 39.83022 | -85.16270 | 25113 ft | 437 kts | 328° |
| 2026-04-30 01:23 | 39.85817 | -85.17849 | 25476 ft | 439 kts | 328° |
| 2026-04-30 01:23 | 39.88637 | -85.19445 | 25795 ft | 441 kts | 328° |
| 2026-04-30 01:23 | 39.91425 | -85.21023 | 26094 ft | 443 kts | 327° |
| 2026-04-30 01:23 | 39.94258 | -85.22628 | 26411 ft | 444 kts | 327° |
| 2026-04-30 01:24 | 39.97092 | -85.24232 | 26837 ft | 442 kts | 327° |
| 2026-04-30 01:24 | 39.99906 | -85.25827 | 27304 ft | 440 kts | 327° |
| 2026-04-30 01:24 | 40.02721 | -85.27425 | 27793 ft | 439 kts | 327° |
| 2026-04-30 01:24 | 40.05521 | -85.29018 | 27996 ft | 440 kts | 327° |
| 2026-04-30 01:25 | 40.11131 | -85.32216 | 28012 ft | 439 kts | 327° |
| 2026-04-30 01:25 | 40.16697 | -85.35394 | 28021 ft | 439 kts | 327° |
| 2026-04-30 01:26 | 40.22271 | -85.38645 | 28014 ft | 435 kts | 323° |
| 2026-04-30 01:26 | 40.27130 | -85.43064 | 28019 ft | 420 kts | 311° |
| 2026-04-30 01:27 | 40.31566 | -85.48077 | 28015 ft | 421 kts | 311° |
| 2026-04-30 01:27 | 40.36024 | -85.53065 | 28011 ft | 421 kts | 312° |
| 2026-04-30 01:28 | 40.40480 | -85.58025 | 28027 ft | 422 kts | 312° |
| 2026-04-30 01:28 | 40.44963 | -85.63019 | 28034 ft | 423 kts | 312° |
| 2026-04-30 01:29 | 40.49647 | -85.67782 | 28023 ft | 436 kts | 323° |